Time;durP1;ratioP1;P1;durP2;ratioP2;P2;SDS_P1;SDS_P2;PMS_P1;PMS_P2;Temp;Humidity;BMP_temperature;BMP_pressure;BME280_temperature;BME280_humidity;BME280_pressure;Samples;Min_cycle;Max_cycle;Signal;HPM_P1;HPM_P2
2022/07/06 00:01:30;;;;;;;3.60;3.15;;;;;;;19.64;61.06;100896.56;5054795;28;20449;-62
2022/07/06 00:03:56;;;;;;;5.65;3.83;;;;;;;19.64;60.98;100897.41;5076499;28;20028;-62
2022/07/06 00:06:22;;;;;;;3.30;2.30;;;;;;;19.66;61.14;100889.34;5076482;28;20044;-62
2022/07/06 00:08:48;;;;;;;5.70;3.08;;;;;;;19.75;60.75;100901.31;5058369;28;20600;-63
2022/07/06 00:11:13;;;;;;;2.90;2.30;;;;;;;19.85;60.55;100902.59;5041914;28;20029;-63
2022/07/06 00:13:38;;;;;;;4.18;3.10;;;;;;;19.76;60.51;100903.94;5058280;28;20082;-63
2022/07/06 00:16:07;;;;;;;6.35;4.20;;;;;;;19.79;60.28;100902.88;5075959;28;20112;-62
2022/07/06 00:18:32;;;;;;;4.93;3.50;;;;;;;19.78;60.12;100902.03;5058117;28;20024;-63
2022/07/06 00:20:58;;;;;;;7.90;3.10;;;;;;;19.55;60.72;100895.19;5075954;28;20066;-62
2022/07/06 00:23:23;;;;;;;4.72;3.97;;;;;;;19.47;60.73;100902.72;5076067;28;20031;-62
2022/07/06 00:25:49;;;;;;;5.82;4.30;;;;;;;19.43;60.80;100902.00;5076044;28;20036;-62
2022/07/06 00:28:15;;;;;;;4.50;3.75;;;;;;;19.35;61.19;100896.22;5076003;28;20024;-62
2022/07/06 00:30:43;;;;;;;5.22;4.35;;;;;;;19.27;61.30;100897.50;5057632;28;20432;-62
2022/07/06 00:33:09;;;;;;;6.10;4.85;;;;;;;19.22;61.59;100895.06;5076165;28;20116;-62
2022/07/06 00:35:34;;;;;;;6.53;4.20;;;;;;;19.17;61.81;100889.13;5058121;28;20054;-62
2022/07/06 00:38:00;;;;;;;7.95;5.05;;;;;;;18.97;62.49;100886.56;5075858;28;20036;-62
2022/07/06 00:40:26;;;;;;;7.10;5.15;;;;;;;18.86;62.68;100885.28;5075504;28;20028;-62
2022/07/06 00:42:52;;;;;;;7.55;5.43;;;;;;;19.06;62.70;100886.09;5075739;28;20101;-62
2022/07/06 00:45:19;;;;;;;7.97;5.53;;;;;;;18.95;62.53;100884.00;5058112;28;20120;-62
2022/07/06 00:47:45;;;;;;;6.80;5.32;;;;;;;19.00;62.34;100891.75;5058011;28;20051;-62
2022/07/06 00:50:22;;;;;;;8.77;5.40;;;;;;;19.08;61.92;100879.78;5041125;28;20033;-62
2022/07/06 00:52:50;;;;;;;6.82;4.65;;;;;;;19.03;62.02;100881.81;5057865;28;20067;-62
2022/07/06 00:55:19;;;;;;;6.57;4.70;;;;;;;19.05;61.74;100879.06;5057244;28;20081;-62
2022/07/06 00:57:44;;;;;;;6.97;4.50;;;;;;;19.04;61.80;100872.03;5075238;28;20179;-62
2022/07/06 01:00:12;;;;;;;6.30;4.10;;;;;;;19.06;61.72;100878.97;5040896;28;20060;-62
2022/07/06 01:02:38;;;;;;;7.97;4.95;;;;;;;19.06;61.39;100876.31;5057317;28;20055;-62
2022/07/06 01:05:07;;;;;;;5.40;4.32;;;;;;;19.18;61.07;100873.03;5040775;28;20456;-62
2022/07/06 01:07:33;;;;;;;5.55;4.20;;;;;;;19.30;60.52;100870.72;5057105;28;20061;-62
2022/07/06 01:09:58;;;;;;;7.00;4.30;;;;;;;19.34;60.47;100859.81;5056911;28;20064;-62
2022/07/06 01:12:24;;;;;;;8.40;5.10;;;;;;;19.34;60.34;100861.63;5040647;28;20154;-62
2022/07/06 01:14:50;;;;;;;6.82;4.22;;;;;;;19.22;60.56;100871.09;5056979;28;20028;-62
2022/07/06 01:17:17;;;;;;;6.80;4.22;;;;;;;19.14;60.82;100858.16;5057056;28;20040;-62
2022/07/06 01:19:43;;;;;;;5.90;3.90;;;;;;;19.19;60.66;100865.94;5040415;28;20040;-62
2022/07/06 01:22:09;;;;;;;6.32;4.18;;;;;;;19.16;60.66;100863.44;5056834;28;20040;-62
2022/07/06 01:24:36;;;;;;;5.75;4.60;;;;;;;19.18;60.55;100861.53;5074926;28;20558;-62
2022/07/06 01:27:02;;;;;;;5.55;4.00;;;;;;;19.11;60.60;100860.09;5057394;28;20025;-62
2022/07/06 01:29:27;;;;;;;5.72;4.10;;;;;;;19.15;60.64;100861.69;5056543;28;20032;-62
2022/07/06 01:31:53;;;;;;;8.27;4.63;;;;;;;19.09;60.75;100860.19;5057050;28;20029;-62
2022/07/06 01:34:19;;;;;;;7.32;4.65;;;;;;;18.97;60.76;100859.94;5056770;28;20036;-62
2022/07/06 01:36:45;;;;;;;6.40;4.55;;;;;;;18.92;61.01;100853.03;5056736;28;20379;-62
2022/07/06 01:39:11;;;;;;;5.75;4.55;;;;;;;18.86;61.13;100850.66;5072979;28;20020;-62
2022/07/06 01:41:37;;;;;;;5.43;4.50;;;;;;;18.62;61.71;100849.16;5055786;28;20020;-62
2022/07/06 01:44:04;;;;;;;6.35;5.07;;;;;;;18.43;62.35;100850.03;5040011;28;20021;-62
2022/07/06 01:46:30;;;;;;;6.28;4.60;;;;;;;18.41;62.39;100854.53;5056468;28;20028;-62
2022/07/06 01:48:55;;;;;;;6.72;4.95;;;;;;;18.30;62.65;100846.19;5056607;28;20040;-62
2022/07/06 01:51:21;;;;;;;6.00;4.32;;;;;;;18.44;62.55;100851.75;5074362;28;20457;-62
2022/07/06 01:53:48;;;;;;;7.00;4.68;;;;;;;18.46;62.28;100859.66;5073897;28;20028;-62
2022/07/06 01:56:13;;;;;;;5.65;4.57;;;;;;;18.37;62.33;100854.78;5040345;28;20093;-62
2022/07/06 01:58:39;;;;;;;5.55;4.03;;;;;;;18.36;62.56;100851.25;5074017;28;20480;-62
2022/07/06 02:01:08;;;;;;;7.40;4.68;;;;;;;18.39;62.98;100858.22;5056355;28;20501;-62
2022/07/06 02:03:34;;;;;;;6.78;4.72;;;;;;;18.46;62.38;100860.50;5056211;28;20056;-62
2022/07/06 02:06:00;;;;;;;4.50;3.63;;;;;;;18.46;62.31;100855.19;5056262;28;20430;-62
2022/07/06 02:08:25;;;;;;;5.63;4.03;;;;;;;18.65;61.71;100851.66;5056008;28;20036;-62
2022/07/06 02:10:50;;;;;;;5.53;4.35;;;;;;;18.58;62.13;100850.22;5074323;28;20021;-62
2022/07/06 02:13:16;;;;;;;5.75;4.00;;;;;;;18.66;61.72;100858.72;5056297;28;20036;-62
2022/07/06 02:15:41;;;;;;;5.80;4.03;;;;;;;18.62;61.60;100858.00;5073595;28;20460;-62
2022/07/06 02:18:07;;;;;;;4.93;4.18;;;;;;;18.61;61.62;100858.94;5073885;28;20035;-62
2022/07/06 02:20:32;;;;;;;4.85;3.88;;;;;;;18.62;61.67;100867.78;5073787;28;20471;-62
2022/07/06 02:22:58;;;;;;;6.22;4.30;;;;;;;18.62;61.68;100870.44;5039105;28;20390;-62
2022/07/06 02:25:23;;;;;;;4.28;3.55;;;;;;;18.60;61.31;100864.34;5055531;28;20032;-63
2022/07/06 02:27:49;;;;;;;6.22;3.47;;;;;;;18.66;61.26;100877.34;5073808;28;20032;-62
2022/07/06 02:30:16;;;;;;;6.63;3.60;;;;;;;18.74;61.14;100871.69;5073502;28;20036;-62
2022/07/06 02:32:42;;;;;;;5.05;3.85;;;;;;;18.77;60.84;100875.06;5055629;28;20024;-62
2022/07/06 02:35:08;;;;;;;4.68;3.45;;;;;;;18.82;60.66;100870.38;5073621;28;20363;-62
2022/07/06 02:37:33;;;;;;;7.10;3.85;;;;;;;18.77;60.70;100876.88;5087097;28;20028;-62
2022/07/06 02:39:59;;;;;;;5.60;4.00;;;;;;;18.79;60.36;100867.00;5069347;28;20034;-62
2022/07/06 02:42:24;;;;;;;6.45;3.75;;;;;;;18.76;60.49;100873.34;5073458;28;20070;-62
2022/07/06 02:44:53;;;;;;;7.85;4.32;;;;;;;18.73;60.56;100864.66;5073870;28;20079;-62
2022/07/06 02:47:18;;;;;;;5.07;3.22;;;;;;;18.89;60.53;100878.94;5055575;28;20036;-62
2022/07/06 02:49:43;;;;;;;5.72;3.67;;;;;;;19.05;59.79;100879.06;5039235;28;20036;-62
2022/07/06 02:52:09;;;;;;;4.40;3.38;;;;;;;19.08;59.39;100889.56;5073419;28;20024;-62
2022/07/06 02:54:34;;;;;;;6.47;3.92;;;;;;;19.08;59.13;100879.78;5054988;28;20060;-62
2022/07/06 02:57:00;;;;;;;6.75;3.92;;;;;;;19.05;59.00;100884.38;5073555;28;20024;-62
2022/07/06 02:59:25;;;;;;;4.57;3.30;;;;;;;19.13;58.69;100871.56;5073248;28;20484;-62
2022/07/06 03:01:50;;;;;;;5.88;3.53;;;;;;;19.24;58.29;100871.91;5073419;28;20029;-62
2022/07/06 03:04:16;;;;;;;6.28;3.40;;;;;;;19.32;57.86;100869.72;5073388;28;20456;-62
2022/07/06 03:06:41;;;;;;;5.03;3.20;;;;;;;19.32;57.94;100872.38;5073129;28;20074;-62
2022/07/06 03:09:07;;;;;;;4.28;3.40;;;;;;;19.43;57.54;100864.72;5038897;28;20044;-62
2022/07/06 03:11:35;;;;;;;5.43;3.85;;;;;;;19.12;57.99;100864.50;5073058;28;20020;-62
2022/07/06 03:14:02;;;;;;;8.10;4.07;;;;;;;18.86;58.46;100857.78;5073203;28;20033;-62
2022/07/06 03:16:28;;;;;;;4.90;3.88;;;;;;;18.70;58.88;100863.84;5055140;28;20029;-62
2022/07/06 03:18:54;;;;;;;5.88;3.50;;;;;;;18.67;58.66;100853.34;5055137;28;20040;-62
2022/07/06 03:21:25;;;;;;;6.32;3.78;;;;;;;18.63;58.90;100845.53;5055209;28;20059;-62
2022/07/06 03:23:51;;;;;;;5.22;3.88;;;;;;;18.74;58.97;100834.44;5073263;28;20059;-62
2022/07/06 03:26:16;;;;;;;6.32;3.97;;;;;;;18.93;58.54;100844.09;5055185;28;20162;-62
2022/07/06 03:28:42;;;;;;;6.07;3.80;;;;;;;19.09;58.49;100846.88;5073044;28;20048;-62
2022/07/06 03:31:09;;;;;;;5.75;3.40;;;;;;;19.30;57.97;100836.09;5073133;28;20498;-62
2022/07/06 03:33:35;;;;;;;4.47;3.55;;;;;;;19.47;57.44;100841.44;5055222;28;20033;-62
2022/07/06 03:36:00;;;;;;;4.53;3.40;;;;;;;19.60;57.04;100839.00;5073963;28;20120;-63
2022/07/06 03:38:26;;;;;;;4.57;3.50;;;;;;;19.74;56.74;100838.28;5078506;28;20371;-62
2022/07/06 03:40:51;;;;;;;4.93;3.50;;;;;;;19.90;56.46;100836.53;5083101;28;20472;-62
2022/07/06 03:43:17;;;;;;;5.28;4.20;;;;;;;20.30;55.23;100842.38;5076851;28;20082;-63
2022/07/06 03:45:42;;;;;;;8.65;4.60;;;;;;;20.25;55.31;100844.44;5076592;28;20039;-62
2022/07/06 03:48:08;;;;;;;5.72;3.10;;;;;;;20.30;55.51;100848.56;5076662;28;20028;-62
2022/07/06 03:50:36;;;;;;;9.45;3.65;;;;;;;20.62;54.49;100838.81;5058869;28;20063;-62
2022/07/06 03:53:02;;;;;;;6.03;3.50;;;;;;;20.79;54.12;100845.91;5042507;28;20025;-63
2022/07/06 03:55:27;;;;;;;5.07;3.15;;;;;;;20.83;53.61;100841.25;5055147;28;20048;-63
2022/07/06 03:57:53;;;;;;;4.55;2.67;;;;;;;20.82;53.47;100843.03;5056699;28;20074;-62
2022/07/06 04:00:18;;;;;;;5.55;3.08;;;;;;;20.86;53.25;100843.72;5038628;28;20033;-62
2022/07/06 04:02:43;;;;;;;5.22;2.80;;;;;;;20.81;53.31;100843.97;5056356;28;20021;-62
2022/07/06 04:05:09;;;;;;;4.28;2.90;;;;;;;20.82;53.25;100842.16;5054878;28;20017;-62
2022/07/06 04:07:35;;;;;;;7.53;3.15;;;;;;;20.57;53.68;100845.38;5056465;28;20029;-62
2022/07/06 04:10:00;;;;;;;4.88;2.90;;;;;;;20.48;53.86;100843.19;5055484;28;20037;-62
2022/07/06 04:12:26;;;;;;;8.30;2.83;;;;;;;20.32;54.67;100853.84;5054767;28;20031;-63
2022/07/06 04:14:51;;;;;;;4.88;2.45;;;;;;;20.20;54.96;100855.38;5054766;28;20052;-63
2022/07/06 04:20:00;;;;;;;3.42;2.30;;;;;;;20.43;54.55;100830.97;5055552;28;20514;-63
2022/07/06 04:22:26;;;;;;;5.82;2.78;;;;;;;20.64;53.89;100844.94;5056089;28;20025;-63
2022/07/06 04:24:51;;;;;;;3.92;2.20;;;;;;;20.43;54.42;100846.97;5055955;28;20021;-63
2022/07/06 04:27:17;;;;;;;5.13;2.85;;;;;;;20.40;54.33;100841.81;5056081;28;20029;-63
2022/07/06 04:29:42;;;;;;;5.72;2.70;;;;;;;20.48;54.37;100846.72;5054809;28;20376;-63
2022/07/06 04:32:07;;;;;;;4.93;2.42;;;;;;;20.77;53.75;100836.25;5055900;28;20108;-62
2022/07/06 04:34:33;;;;;;;6.60;3.28;;;;;;;20.87;53.44;100832.97;5054693;28;20027;-63
2022/07/06 04:37:01;;;;;;;5.18;2.70;;;;;;;21.02;53.10;100830.34;5054629;28;20033;-63
2022/07/06 04:39:27;;;;;;;5.47;3.00;;;;;;;21.07;53.33;100831.81;5037916;28;20028;-63
2022/07/06 04:41:53;;;;;;;5.03;3.30;;;;;;;21.18;53.01;100825.81;5055803;28;20036;-63
2022/07/06 04:44:18;;;;;;;7.13;3.95;;;;;;;20.86;53.43;100833.91;5054359;28;20114;-63
2022/07/06 04:46:43;;;;;;;8.77;4.55;;;;;;;20.36;54.70;100834.06;5055450;28;20032;-63
2022/07/06 04:49:09;;;;;;;9.63;5.13;;;;;;;20.38;54.59;100827.66;5037586;28;20029;-63
2022/07/06 04:51:34;;;;;;;7.68;4.65;;;;;;;20.39;54.79;100818.75;5054286;28;20119;-63
2022/07/06 04:54:00;;;;;;;6.35;3.60;;;;;;;20.42;55.04;100821.22;5058019;28;20051;-63
2022/07/06 04:56:25;;;;;;;9.98;5.40;;;;;;;20.65;54.28;100824.44;5075648;28;20447;-62
2022/07/06 04:58:50;;;;;;;5.32;3.33;;;;;;;20.92;54.05;100822.03;5075270;28;20032;-63
2022/07/06 05:01:16;;;;;;;9.52;5.63;;;;;;;20.98;53.55;100826.13;5053948;28;20028;-62
2022/07/06 05:03:41;;;;;;;7.60;4.28;;;;;;;21.22;53.19;100824.69;5055495;28;20108;-62
2022/07/06 05:06:10;;;;;;;6.22;4.22;;;;;;;21.10;53.11;100820.06;5041342;28;20120;-62
2022/07/06 05:08:35;;;;;;;8.77;5.53;;;;;;;21.10;53.18;100828.09;5057642;28;20067;-62
2022/07/06 05:11:01;;;;;;;7.30;5.10;;;;;;;21.43;52.72;100824.44;5059473;28;20421;-62
2022/07/06 05:13:26;;;;;;;9.48;3.72;;;;;;;21.25;52.99;100816.50;5075401;28;20377;-62
2022/07/06 05:15:52;;;;;;;5.70;3.10;;;;;;;21.26;52.65;100812.88;5075020;28;20029;-62
2022/07/06 05:18:17;;;;;;;6.50;2.80;;;;;;;21.16;53.11;100809.91;5040646;28;20054;-62
2022/07/06 05:20:44;;;;;;;7.65;2.72;;;;;;;21.36;52.86;100807.88;5074877;28;20112;-62
2022/07/06 05:23:09;;;;;;;5.40;2.70;;;;;;;21.55;52.57;100791.59;5054706;28;20032;-62
2022/07/06 05:25:36;;;;;;;7.70;2.78;;;;;;;21.89;52.02;100799.25;5037051;28;20036;-63
2022/07/06 05:28:02;;;;;;;5.00;2.38;;;;;;;21.84;52.16;100801.38;5037036;28;20491;-62
2022/07/06 05:30:28;;;;;;;4.68;1.80;;;;;;;21.82;52.11;100797.06;5036711;28;20057;-62
2022/07/06 05:32:53;;;;;;;4.13;2.10;;;;;;;22.11;51.47;100793.44;5036962;28;20028;-63
2022/07/06 05:35:18;;;;;;;6.03;2.05;;;;;;;22.39;50.88;100786.34;5036892;28;20033;-62
2022/07/06 05:37:44;;;;;;;4.80;1.70;;;;;;;22.49;50.45;100792.81;5083605;28;20020;-62
2022/07/06 05:40:10;;;;;;;3.42;1.75;;;;;;;22.64;49.95;100790.97;5066374;28;20052;-62
2022/07/06 05:42:35;;;;;;;4.63;1.95;;;;;;;23.01;49.59;100788.56;5020163;28;20097;-63
2022/07/06 05:45:03;;;;;;;5.28;1.67;;;;;;;23.18;49.14;100801.69;5075906;28;21461;-63
2022/07/06 05:50:12;;;;;;;4.05;1.50;;;;;;;22.51;50.91;100798.09;5039675;28;20089;-63
2022/07/06 05:52:56;;;;;;;4.00;1.45;;;;;;;22.46;51.06;100797.50;5058066;28;20414;-63
2022/07/06 05:55:22;;;;;;;4.65;1.50;;;;;;;22.51;51.04;100790.91;5071824;28;20047;-62
2022/07/06 05:57:48;;;;;;;5.53;2.25;;;;;;;23.02;49.83;100790.25;5051488;28;20037;-63
2022/07/06 06:00:13;;;;;;;5.68;2.15;;;;;;;22.49;50.63;100791.97;5053415;28;20056;-63
2022/07/06 06:02:40;;;;;;;5.47;1.58;;;;;;;22.22;51.61;100784.75;5036549;28;20036;-63
2022/07/06 06:05:08;;;;;;;3.22;1.45;;;;;;;22.62;50.73;100776.81;5072299;28;20074;-62
2022/07/06 06:07:35;;;;;;;2.47;0.95;;;;;;;22.70;50.51;100789.69;5043052;28;20036;-62
2022/07/06 06:10:03;;;;;;;2.55;0.98;;;;;;;22.56;50.67;100786.09;5035823;28;20025;-62
2022/07/06 06:12:36;;;;;;;2.83;0.80;;;;;;;22.47;50.48;100789.38;5020101;28;20036;-62
2022/07/06 06:15:03;;;;;;;2.58;0.60;;;;;;;22.08;50.88;100782.91;5036715;28;20021;-62
2022/07/06 06:17:28;;;;;;;2.53;0.77;;;;;;;22.12;51.04;100784.44;5035854;28;20443;-62
2022/07/06 06:19:54;;;;;;;3.92;0.70;;;;;;;22.12;51.15;100783.59;5036023;28;20049;-63
2022/07/06 06:22:19;;;;;;;1.65;0.70;;;;;;;22.16;51.18;100779.78;5053884;28;20036;-62
2022/07/06 06:24:49;;;;;;;4.45;0.90;;;;;;;22.09;50.76;100778.41;5053734;28;20060;-63
2022/07/06 06:27:15;;;;;;;1.70;0.70;;;;;;;22.41;50.56;100775.53;5036010;28;20075;-62
2022/07/06 06:29:41;;;;;;;3.05;0.70;;;;;;;22.44;50.12;100773.53;5054029;28;20715;-62
2022/07/06 06:32:07;;;;;;;3.15;0.75;;;;;;;22.42;49.73;100775.41;5053716;28;20074;-62
2022/07/06 06:34:33;;;;;;;2.10;0.63;;;;;;;22.30;50.16;100769.06;5035797;28;20029;-62
2022/07/06 06:36:59;;;;;;;3.53;0.73;;;;;;;22.51;49.57;100768.63;5071211;28;20353;-63
2022/07/06 06:39:26;;;;;;;1.55;0.77;;;;;;;22.60;49.14;100776.91;5073910;28;20024;-63
2022/07/06 06:41:51;;;;;;;2.30;0.70;;;;;;;22.85;48.33;100768.09;5049838;28;20424;-61
2022/07/06 06:44:17;;;;;;;3.47;0.80;;;;;;;22.84;48.24;100776.25;5073133;28;20024;-62
2022/07/06 06:46:43;;;;;;;3.03;0.70;;;;;;;22.76;48.26;100774.09;5049285;28;20040;-62
2022/07/06 06:49:09;;;;;;;2.35;0.70;;;;;;;23.02;48.11;100775.06;5043361;28;20081;-62
2022/07/06 06:51:35;;;;;;;4.30;0.65;;;;;;;23.34;47.15;100772.03;5035440;28;20115;-62
2022/07/06 06:54:00;;;;;;;2.40;0.60;;;;;;;23.10;47.26;100770.03;5037489;28;20532;-62
2022/07/06 06:56:26;;;;;;;1.33;0.80;;;;;;;23.19;47.05;100765.88;5073522;28;20468;-62
2022/07/06 06:58:52;;;;;;;1.48;0.52;;;;;;;23.28;46.07;100764.38;5055359;28;20032;-62
2022/07/06 07:01:17;;;;;;;5.63;0.50;;;;;;;23.19;46.52;100767.72;5073170;28;20032;-62
2022/07/06 07:03:43;;;;;;;1.52;0.60;;;;;;;23.52;45.68;100767.19;5073344;28;20029;-62
2022/07/06 07:06:08;;;;;;;3.17;0.88;;;;;;;23.97;44.95;100757.75;5055507;28;20170;-62
2022/07/06 07:08:33;;;;;;;5.25;1.08;;;;;;;23.95;44.35;100772.25;5073118;28;20061;-62
2022/07/06 07:10:59;;;;;;;2.25;1.15;;;;;;;24.00;44.45;100772.78;5055120;28;20305;-62
2022/07/06 07:13:24;;;;;;;3.85;1.02;;;;;;;23.89;44.25;100778.03;5077158;28;20028;-62
2022/07/06 07:15:50;;;;;;;3.85;0.77;;;;;;;23.71;44.19;100769.50;5076978;28;20024;-62
2022/07/06 07:18:15;;;;;;;1.45;0.52;;;;;;;23.76;44.38;100770.88;5077193;28;20043;-62
2022/07/06 07:20:41;;;;;;;2.15;0.70;;;;;;;24.29;43.89;100752.72;5059344;28;20031;-62
2022/07/06 07:23:06;;;;;;;2.42;0.93;;;;;;;24.76;43.28;100755.59;5077063;28;20551;-62
2022/07/06 07:25:32;;;;;;;1.13;0.50;;;;;;;24.83;43.04;100754.16;5077323;28;20040;-62
2022/07/06 07:27:57;;;;;;;2.92;0.90;;;;;;;24.74;42.78;100758.41;5076870;28;20036;-62
2022/07/06 07:30:23;;;;;;;2.70;0.70;;;;;;;24.82;42.01;100764.06;5077006;28;20025;-62
2022/07/06 07:32:48;;;;;;;1.30;0.60;;;;;;;25.11;42.03;100749.41;5076789;28;20445;-62
2022/07/06 07:35:14;;;;;;;1.48;0.52;;;;;;;25.21;40.80;100743.19;5076920;28;20032;-62
2022/07/06 07:37:39;;;;;;;1.63;0.57;;;;;;;25.69;40.19;100751.06;5073972;28;20035;-62
2022/07/06 07:40:05;;;;;;;2.45;0.60;;;;;;;25.61;39.49;100742.75;5075920;28;20035;-62
2022/07/06 07:42:31;;;;;;;1.92;0.60;;;;;;;25.90;39.31;100747.72;5058963;28;20464;-62
2022/07/06 07:44:57;;;;;;;1.92;0.80;;;;;;;25.90;38.84;100745.03;5077093;28;20070;-62
2022/07/06 07:47:22;;;;;;;2.28;0.70;;;;;;;26.23;38.79;100744.13;5076740;28;20459;-62
2022/07/06 07:49:48;;;;;;;1.80;0.65;;;;;;;26.35;37.77;100745.81;5071800;28;20023;-60
2022/07/06 07:52:13;;;;;;;3.80;0.80;;;;;;;26.16;38.41;100759.91;5065251;28;20040;-62
2022/07/06 07:54:39;;;;;;;3.33;0.98;;;;;;;25.71;39.52;100750.97;5062714;28;20044;-62
2022/07/06 07:57:04;;;;;;;2.05;0.77;;;;;;;25.72;39.98;100750.84;5034299;28;20040;-62
2022/07/06 07:59:30;;;;;;;3.72;0.80;;;;;;;25.87;39.54;100756.03;5052128;28;20024;-61
2022/07/06 08:01:56;;;;;;;2.33;0.60;;;;;;;24.85;40.66;100751.34;5059341;28;20033;-62
2022/07/06 08:04:22;;;;;;;2.22;0.50;;;;;;;24.91;40.74;100753.56;5057788;28;20033;-62
2022/07/06 08:06:48;;;;;;;1.67;0.70;;;;;;;24.96;40.71;100756.75;5054446;28;20030;-62
2022/07/06 08:09:13;;;;;;;2.67;0.80;;;;;;;24.51;41.05;100751.19;5068270;28;20096;-63
2022/07/06 08:11:42;;;;;;;1.80;0.70;;;;;;;24.03;42.05;100761.81;5046144;28;20051;-61
2022/07/06 08:14:08;;;;;;;2.65;0.73;;;;;;;24.13;42.18;100754.81;5066271;28;20458;-62
2022/07/06 08:16:34;;;;;;;2.05;1.00;;;;;;;24.08;41.89;100756.97;5047352;28;20136;-62
2022/07/06 08:18:59;;;;;;;2.42;0.68;;;;;;;24.40;41.60;100751.13;5045347;28;20745;-63
2022/07/06 08:21:25;;;;;;;1.55;0.90;;;;;;;25.12;39.75;100735.84;5043979;28;20037;-62
2022/07/06 08:23:51;;;;;;;2.95;0.80;;;;;;;25.10;38.34;100751.25;5062173;28;20146;-62
2022/07/06 08:26:16;;;;;;;2.63;0.88;;;;;;;24.57;38.49;100756.94;5047300;28;20028;-61
2022/07/06 08:28:42;;;;;;;3.30;0.70;;;;;;;24.38;38.87;100739.59;5047819;28;20037;-61
2022/07/06 08:31:10;;;;;;;1.92;0.70;;;;;;;24.89;38.77;100734.88;5052551;28;20025;-62
2022/07/06 08:33:35;;;;;;;3.25;0.50;;;;;;;25.07;37.17;100746.06;5048260;28;20032;-61
2022/07/06 08:36:01;;;;;;;2.65;0.60;;;;;;;25.33;38.15;100727.06;5054135;28;20039;-61
2022/07/06 08:38:26;;;;;;;2.42;0.50;;;;;;;25.10;37.72;100737.81;5072747;28;20360;-61
2022/07/06 08:40:52;;;;;;;2.50;0.60;;;;;;;24.97;38.29;100736.97;5094568;28;20048;-61
2022/07/06 08:43:17;;;;;;;2.22;0.70;;;;;;;24.54;39.06;100740.22;5094403;28;20020;-61
2022/07/06 08:45:46;;;;;;;1.77;0.50;;;;;;;24.76;39.03;100734.09;5081852;28;20363;-61
2022/07/06 08:48:12;;;;;;;1.88;0.50;;;;;;;25.13;38.23;100729.47;5075326;28;20391;-61
2022/07/06 08:50:38;;;;;;;3.83;0.70;;;;;;;25.16;38.26;100731.06;5092154;28;20077;-62
2022/07/06 08:53:04;;;;;;;1.92;0.50;;;;;;;25.34;38.30;100728.81;5061614;28;20043;-61
2022/07/06 08:55:34;;;;;;;1.42;0.55;;;;;;;25.01;38.68;100722.31;5077112;28;20055;-62
2022/07/06 08:58:00;;;;;;;3.35;0.90;;;;;;;24.66;38.55;100727.72;5077534;28;20093;-62
2022/07/06 09:00:25;;;;;;;1.92;0.70;;;;;;;24.78;38.48;100733.00;5095490;28;20463;-61
2022/07/06 09:02:53;;;;;;;4.25;1.15;;;;;;;24.24;38.76;100741.47;5077479;28;20040;-62
2022/07/06 09:05:21;;;;;;;1.83;0.68;;;;;;;23.94;39.36;100727.56;5077065;28;20039;-62
2022/07/06 09:07:52;;;;;;;2.88;0.68;;;;;;;24.50;38.66;100741.44;5077475;28;20363;-61
2022/07/06 09:10:19;;;;;;;2.58;0.70;;;;;;;24.54;38.48;100734.84;5077341;28;20051;-61
2022/07/06 09:12:45;;;;;;;4.68;0.60;;;;;;;24.98;38.04;100725.28;5077257;28;20031;-61
2022/07/06 09:15:11;;;;;;;1.20;0.40;;;;;;;25.36;37.79;100732.22;5077043;28;20020;-62
2022/07/06 09:17:43;;;;;;;4.63;0.70;;;;;;;25.25;36.64;100733.91;5076780;28;20028;-61
2022/07/06 09:20:11;;;;;;;1.10;0.70;;;;;;;25.52;36.98;100719.28;5076994;28;20028;-61
2022/07/06 09:22:38;;;;;;;3.40;0.90;;;;;;;26.20;36.22;100729.06;5060327;28;20028;-61
2022/07/06 09:25:05;;;;;;;1.60;0.70;;;;;;;26.49;35.73;100720.44;5077180;28;20460;-61
2022/07/06 09:27:30;;;;;;;2.40;0.60;;;;;;;26.03;35.20;100730.44;5057189;28;20071;-61
2022/07/06 09:30:01;;;;;;;2.70;0.63;;;;;;;25.68;35.47;100727.00;5074762;28;20060;-61
2022/07/06 09:32:27;;;;;;;2.10;0.55;;;;;;;25.58;36.28;100726.03;5055193;28;20050;-62
2022/07/06 09:34:52;;;;;;;3.97;0.68;;;;;;;25.28;36.61;100748.94;5071128;28;20460;-62
2022/07/06 09:37:18;;;;;;;1.98;0.52;;;;;;;24.42;37.14;100738.47;5064622;28;20029;-62
2022/07/06 09:39:44;;;;;;;2.33;0.63;;;;;;;24.12;38.11;100730.78;5018022;28;20028;-62
2022/07/06 09:42:10;;;;;;;2.65;0.70;;;;;;;24.17;38.12;100732.13;5052768;28;20131;-62
2022/07/06 09:44:41;;;;;;;5.78;1.40;;;;;;;24.17;38.31;100734.81;5056503;28;20043;-62
2022/07/06 09:47:11;;;;;;;4.65;1.02;;;;;;;24.80;37.25;100722.13;5055809;28;20029;-62
2022/07/06 09:49:39;;;;;;;4.03;0.65;;;;;;;24.99;36.04;100718.91;5039929;28;20119;-62
2022/07/06 09:52:07;;;;;;;3.40;0.60;;;;;;;24.82;35.56;100713.00;5028705;28;20072;-62
2022/07/06 09:54:34;;;;;;;2.15;0.80;;;;;;;25.03;33.90;100723.06;5053469;28;20041;-62
2022/07/06 09:57:03;;;;;;;2.55;0.50;;;;;;;24.80;33.16;100720.31;5049607;28;20082;-61
2022/07/06 09:59:31;;;;;;;4.68;1.45;;;;;;;24.85;33.39;100719.09;5078782;28;20051;-62
2022/07/06 10:02:02;;;;;;;1.50;0.45;;;;;;;24.94;33.29;100724.66;5035371;28;20040;-62
2022/07/06 10:04:28;;;;;;;3.72;0.50;;;;;;;24.54;34.58;100746.47;5043373;28;20503;-62
2022/07/06 10:06:56;;;;;;;3.90;0.98;;;;;;;24.74;34.52;100736.91;5061267;28;20032;-62
2022/07/06 10:09:24;;;;;;;1.77;0.60;;;;;;;24.34;34.38;100729.09;5071244;28;20385;-62
2022/07/06 10:11:52;;;;;;;3.40;0.68;;;;;;;23.38;40.28;100732.41;5055140;28;20021;-63
2022/07/06 10:14:22;;;;;;;2.67;0.60;;;;;;;23.43;41.45;100739.19;5043283;28;20056;-63
2022/07/06 10:16:48;;;;;;;4.65;0.73;;;;;;;23.54;41.29;100735.78;5044689;28;20740;-63
2022/07/06 10:19:15;;;;;;;2.72;0.70;;;;;;;23.65;41.38;100732.31;5076309;28;20035;-63
2022/07/06 10:21:41;;;;;;;4.53;0.73;;;;;;;24.00;40.24;100728.00;5050101;28;20044;-64
2022/07/06 10:24:08;;;;;;;5.70;0.90;;;;;;;24.27;38.15;100743.94;5048947;28;20039;-64
2022/07/06 10:26:35;;;;;;;2.10;0.57;;;;;;;24.68;38.82;100739.19;5037663;28;20033;-63
2022/07/06 10:29:03;;;;;;;5.82;0.70;;;;;;;24.94;37.65;100721.97;5055802;28;20032;-64
2022/07/06 10:31:29;;;;;;;3.33;0.40;;;;;;;24.25;39.37;100734.28;5052628;28;20036;-63
2022/07/06 10:34:04;;;;;;;1.60;0.55;;;;;;;23.49;40.01;100744.13;5055931;28;20032;-63
2022/07/06 10:36:30;;;;;;;2.05;0.68;;;;;;;23.51;40.87;100744.88;5054939;28;20428;-63
2022/07/06 10:38:57;;;;;;;2.80;0.40;;;;;;;23.13;41.61;100749.34;5049396;28;20024;-63
2022/07/06 10:41:33;;;;;;;4.95;0.80;;;;;;;22.70;42.48;100755.75;5018786;28;20067;-63
2022/07/06 10:44:20;;;;;;;3.40;0.57;;;;;;;23.12;41.33;100748.50;5052076;28;20468;-63
2022/07/06 10:46:52;;;;;;;2.63;0.70;;;;;;;23.76;40.40;100735.13;5053211;28;20033;-63
2022/07/06 10:49:18;;;;;;;4.88;0.80;;;;;;;24.23;38.84;100726.34;5051912;28;20020;-63
2022/07/06 10:51:44;;;;;;;1.70;0.45;;;;;;;24.31;38.68;100729.31;5053491;28;20028;-63
2022/07/06 10:54:10;;;;;;;1.73;0.40;;;;;;;24.91;38.02;100737.44;5053136;28;20136;-63
2022/07/06 10:56:39;;;;;;;1.77;0.50;;;;;;;24.54;37.65;100721.44;5045600;28;20511;-62
2022/07/06 10:59:23;;;;;;;2.58;0.50;;;;;;;25.40;37.51;100715.72;5058589;28;20036;-62
2022/07/06 11:02:18;;;;;;;1.70;0.52;;;;;;;25.85;35.87;100717.59;5068210;28;20468;-69
2022/07/06 11:04:48;;;;;;;2.53;0.63;;;;;;;24.72;37.37;100728.09;5073636;28;20028;-69
2022/07/06 11:07:16;;;;;;;3.15;0.40;;;;;;;24.05;38.65;100728.53;5055366;28;20021;-69
2022/07/06 11:09:57;;;;;;;1.90;0.50;;;;;;;24.29;38.78;100731.25;5073434;28;20036;-69
2022/07/06 11:12:23;;;;;;;2.72;0.40;;;;;;;24.62;37.73;100734.28;5073392;28;20021;-65
2022/07/06 11:14:50;;;;;;;2.85;0.40;;;;;;;25.39;36.23;100726.63;5055182;28;20094;-65
2022/07/06 11:17:17;;;;;;;1.15;0.40;;;;;;;25.39;34.12;100737.38;5054481;28;20074;-65
2022/07/06 11:20:09;;;;;;;1.73;0.50;;;;;;;25.27;33.63;100729.28;5073395;28;20146;-65
2022/07/06 11:22:39;;;;;;;1.98;0.50;;;;;;;25.83;33.87;100733.03;5043019;28;20044;-65
2022/07/06 11:25:06;;;;;;;0.80;0.32;;;;;;;26.62;33.95;100731.06;5038488;28;20174;-64
2022/07/06 11:27:32;;;;;;;2.67;0.70;;;;;;;24.75;35.61;100735.91;5038410;28;20045;-64